Time;durP1;ratioP1;P1;durP2;ratioP2;P2;SDS_P1;SDS_P2;PMS_P1;PMS_P2;Temp;Humidity;BMP_temperature;BMP_pressure;BME280_temperature;BME280_humidity;BME280_pressure;Samples;Min_cycle;Max_cycle;Signal;HPM_P1;HPM_P2
2023/05/01 00:00:08;;;;;;;1.25;0.60;;;14.90;58.30;;;;;;5015291;28;20025;-92
2023/05/01 00:02:34;;;;;;;1.48;0.73;;;14.90;58.40;;;;;;5015174;28;20024;-93
2023/05/01 00:05:01;;;;;;;0.73;0.73;;;14.90;58.40;;;;;;5013904;28;20039;-92
2023/05/01 00:07:30;;;;;;;1.02;0.80;;;14.90;58.40;;;;;;5024676;28;20029;-91
2023/05/01 00:09:56;;;;;;;0.60;0.60;;;14.90;58.50;;;;;;5013468;28;20033;-92
2023/05/01 00:12:22;;;;;;;1.88;0.85;;;14.90;58.50;;;;;;5014865;28;20503;-86
2023/05/01 00:14:48;;;;;;;3.17;0.60;;;14.90;58.50;;;;;;5008096;28;20021;-92
2023/05/01 00:17:14;;;;;;;2.28;0.57;;;14.80;58.50;;;;;;5013944;28;20435;-90
2023/05/01 00:19:40;;;;;;;2.22;0.98;;;14.80;58.50;;;;;;5013334;28;20033;-86
2023/05/01 00:22:05;;;;;;;1.40;0.50;;;14.80;58.50;;;;;;5002379;28;20481;-93
2023/05/01 00:24:31;;;;;;;4.78;0.40;;;14.80;58.60;;;;;;5031307;28;20127;-86
2023/05/01 00:26:57;;;;;;;1.45;0.65;;;14.80;58.60;;;;;;5029846;28;20037;-92
2023/05/01 00:29:23;;;;;;;0.73;0.60;;;14.80;58.50;;;;;;5016110;28;20038;-86
2023/05/01 00:31:49;;;;;;;1.75;0.60;;;14.80;58.50;;;;;;5041778;28;20116;-85
2023/05/01 00:34:14;;;;;;;1.10;0.63;;;14.80;58.50;;;;;;5026550;28;20029;-85
2023/05/01 00:36:40;;;;;;;0.52;0.52;;;14.80;58.60;;;;;;4997328;28;20029;-85
2023/05/01 00:39:09;;;;;;;1.60;0.47;;;14.70;58.60;;;;;;5028690;28;20084;-85
2023/05/01 00:41:35;;;;;;;0.43;0.32;;;14.70;58.60;;;;;;5045917;28;20053;-92
2023/05/01 00:44:01;;;;;;;0.65;0.52;;;14.70;58.50;;;;;;5029416;28;20103;-85
2023/05/01 00:46:33;;;;;;;0.85;0.40;;;14.70;58.40;;;;;;5045612;28;20113;-92
2023/05/01 00:48:59;;;;;;;1.65;0.75;;;14.70;58.30;;;;;;5048467;28;20029;-86
2023/05/01 00:51:28;;;;;;;1.52;0.60;;;14.70;58.20;;;;;;5045852;28;20025;-90
2023/05/01 00:53:54;;;;;;;1.30;0.57;;;14.70;58.20;;;;;;5032735;28;20033;-92
2023/05/01 00:56:20;;;;;;;0.65;0.35;;;14.60;58.00;;;;;;5030410;28;20033;-91
2023/05/01 00:58:52;;;;;;;0.57;0.50;;;14.60;57.90;;;;;;5029773;28;20028;-90
2023/05/01 01:01:19;;;;;;;0.90;0.63;;;14.60;57.80;;;;;;5028824;28;20021;-90
2023/05/01 01:03:45;;;;;;;0.70;0.50;;;14.60;57.80;;;;;;5017889;28;20420;-91
2023/05/01 01:06:41;;;;;;;0.30;0.30;;;14.50;57.70;;;;;;5037278;28;20083;-91
2023/05/01 01:09:28;;;;;;;0.68;0.50;;;14.60;57.60;;;;;;5030293;28;20379;-91
2023/05/01 01:12:28;;;;;;;1.38;0.70;;;14.50;57.60;;;;;;5031743;28;20048;-85
2023/05/01 01:15:41;;;;;;;2.33;0.60;;;14.50;57.60;;;;;;5034263;28;20033;-86
2023/05/01 01:18:24;;;;;;;2.13;1.08;;;14.50;57.60;;;;;;5012482;28;20030;-85
2023/05/01 01:21:16;;;;;;;0.32;0.30;;;14.50;57.60;;;;;;5031364;28;20041;-91
2023/05/01 01:24:03;;;;;;;1.40;0.73;;;14.40;57.50;;;;;;5029448;28;20044;-91
2023/05/01 01:27:13;;;;;;;1.67;0.70;;;14.40;57.60;;;;;;5023692;28;20029;-86
2023/05/01 01:29:48;;;;;;;0.88;0.68;;;14.40;57.60;;;;;;5004892;28;20070;-86
2023/05/01 01:32:27;;;;;;;0.73;0.70;;;14.40;57.70;;;;;;5013212;28;20030;-86
2023/05/01 01:35:03;;;;;;;1.50;0.75;;;14.30;57.60;;;;;;5014923;28;20034;-86
2023/05/01 01:37:42;;;;;;;0.50;0.50;;;14.30;57.70;;;;;;5007457;28;20034;-92
2023/05/01 01:40:17;;;;;;;0.60;0.60;;;14.30;57.60;;;;;;5018491;28;20084;-90
2023/05/01 01:42:54;;;;;;;1.10;0.50;;;14.30;57.70;;;;;;5031867;28;20083;-90
2023/05/01 01:45:39;;;;;;;0.60;0.55;;;14.30;57.70;;;;;;5031079;28;20031;-92
2023/05/01 01:48:12;;;;;;;0.80;0.40;;;14.30;57.60;;;;;;5027169;28;20120;-86
2023/05/01 01:50:39;;;;;;;0.73;0.60;;;14.20;57.60;;;;;;5018395;28;20393;-85
2023/05/01 01:53:08;;;;;;;1.45;0.68;;;14.20;58.20;;;;;;5026301;28;20030;-85
2023/05/01 01:55:36;;;;;;;0.47;0.47;;;14.30;57.70;;;;;;5010232;28;20022;-85
2023/05/01 01:58:04;;;;;;;1.10;0.65;;;14.20;57.60;;;;;;5017000;28;20431;-85
2023/05/01 02:00:30;;;;;;;2.97;0.57;;;14.20;57.70;;;;;;5026125;28;20415;-91
2023/05/01 02:02:59;;;;;;;0.70;0.43;;;14.10;57.80;;;;;;5011898;28;20038;-91
2023/05/01 02:05:26;;;;;;;0.82;0.60;;;14.10;57.70;;;;;;5028260;28;20039;-91
2023/05/01 02:07:54;;;;;;;0.80;0.60;;;14.10;57.80;;;;;;5028355;28;20029;-91
2023/05/01 02:10:22;;;;;;;1.33;0.88;;;14.00;57.80;;;;;;5043922;28;20033;-92
2023/05/01 02:12:50;;;;;;;1.05;0.57;;;14.00;57.90;;;;;;5012736;28;20064;-92
2023/05/01 02:15:17;;;;;;;0.95;0.57;;;14.00;58.00;;;;;;5027897;28;20441;-92
2023/05/01 02:17:44;;;;;;;0.50;0.50;;;14.00;58.10;;;;;;5048157;28;20022;-85
2023/05/01 02:20:11;;;;;;;0.60;0.60;;;14.00;58.30;;;;;;5033695;28;20104;-85
2023/05/01 02:22:42;;;;;;;0.50;0.50;;;14.00;58.40;;;;;;5021067;28;20056;-85
2023/05/01 02:25:11;;;;;;;0.95;0.68;;;13.90;58.30;;;;;;5043086;28;20482;-90
2023/05/01 02:27:49;;;;;;;1.05;0.98;;;14.00;58.30;;;;;;5018861;28;20023;-92
2023/05/01 02:30:17;;;;;;;1.20;0.80;;;14.00;58.30;;;;;;5055590;28;20025;-91
2023/05/01 02:32:43;;;;;;;1.27;0.50;;;13.90;58.30;;;;;;5022141;28;20021;-91
2023/05/01 02:35:09;;;;;;;0.75;0.50;;;13.90;58.30;;;;;;5031214;28;20079;-91
2023/05/01 02:37:36;;;;;;;1.52;0.80;;;13.90;58.30;;;;;;5015339;28;20033;-85
2023/05/01 02:40:03;;;;;;;0.82;0.60;;;13.90;58.30;;;;;;5014986;28;20026;-91
2023/05/01 02:42:29;;;;;;;1.83;0.70;;;13.90;58.20;;;;;;5019779;28;20029;-91
2023/05/01 02:45:14;;;;;;;0.98;0.65;;;13.90;58.10;;;;;;5016062;28;20032;-91
2023/05/01 02:47:43;;;;;;;1.27;1.00;;;14.00;58.10;;;;;;5017121;28;20106;-85
2023/05/01 02:50:09;;;;;;;0.73;0.50;;;13.90;58.20;;;;;;5015804;28;20086;-85
2023/05/01 02:52:36;;;;;;;0.98;0.73;;;13.90;58.20;;;;;;5015930;28;20017;-85
2023/05/01 02:55:02;;;;;;;1.20;0.70;;;13.90;58.40;;;;;;5035051;28;20032;-85
2023/05/01 02:57:28;;;;;;;0.70;0.60;;;13.90;58.40;;;;;;5016537;28;20025;-91
2023/05/01 02:59:54;;;;;;;1.10;0.60;;;13.90;59.00;;;;;;5014963;28;20029;-90
2023/05/01 03:02:19;;;;;;;0.77;0.60;;;13.90;58.40;;;;;;5030725;28;20029;-91
2023/05/01 03:04:45;;;;;;;2.15;0.77;;;14.00;58.40;;;;;;5001033;28;20030;-91
2023/05/01 03:07:11;;;;;;;0.77;0.73;;;13.90;58.40;;;;;;5002173;28;20124;-91
2023/05/01 03:09:37;;;;;;;1.65;0.80;;;14.00;58.40;;;;;;5005111;28;20103;-91
2023/05/01 03:12:03;;;;;;;0.90;0.68;;;14.00;58.40;;;;;;5024121;28;20461;-92
2023/05/01 03:14:28;;;;;;;0.50;0.50;;;13.90;58.40;;;;;;4996650;28;20060;-86
2023/05/01 03:16:55;;;;;;;1.50;0.82;;;14.00;58.50;;;;;;4998447;28;20682;-85
2023/05/01 03:19:21;;;;;;;0.90;0.70;;;13.90;58.50;;;;;;4999780;28;20060;-91
2023/05/01 03:21:46;;;;;;;3.80;0.98;;;13.90;58.60;;;;;;5007688;28;20050;-85
2023/05/01 03:24:12;;;;;;;0.90;0.68;;;13.90;58.60;;;;;;5036198;28;20036;-85
2023/05/01 03:26:38;;;;;;;1.20;0.55;;;13.90;58.70;;;;;;5049727;28;20025;-90
2023/05/01 03:29:03;;;;;;;4.45;0.68;;;13.90;58.60;;;;;;5052465;28;20079;-86
2023/05/01 03:31:29;;;;;;;1.15;0.95;;;13.90;58.60;;;;;;5054370;28;20047;-89
2023/05/01 03:33:55;;;;;;;0.85;0.73;;;13.90;58.90;;;;;;5033257;28;20078;-86
2023/05/01 03:36:21;;;;;;;1.15;0.80;;;13.80;59.00;;;;;;5035565;28;20040;-85
2023/05/01 03:38:47;;;;;;;0.88;0.60;;;13.80;59.00;;;;;;5034440;28;20391;-91
2023/05/01 03:41:13;;;;;;;2.30;1.15;;;13.80;59.10;;;;;;5033334;28;20036;-91
2023/05/01 03:43:38;;;;;;;0.90;0.75;;;13.80;59.10;;;;;;5016780;28;20029;-91
2023/05/01 03:46:04;;;;;;;1.10;1.00;;;13.80;59.10;;;;;;5050244;28;20086;-92
2023/05/01 03:48:30;;;;;;;1.17;0.50;;;13.80;59.20;;;;;;5028805;28;20072;-86
2023/05/01 03:51:16;;;;;;;1.08;0.60;;;13.80;59.20;;;;;;5043959;28;20667;-86
2023/05/01 03:53:43;;;;;;;1.33;0.70;;;13.80;59.30;;;;;;5015299;28;20033;-91
2023/05/01 03:56:08;;;;;;;1.88;0.93;;;13.80;59.40;;;;;;5006256;28;20619;-86
2023/05/01 03:58:35;;;;;;;3.30;1.08;;;13.70;59.40;;;;;;5030846;28;20506;-86
2023/05/01 04:01:01;;;;;;;1.17;0.90;;;13.70;59.50;;;;;;5008074;28;20021;-86
2023/05/01 04:03:27;;;;;;;0.63;0.57;;;13.70;59.70;;;;;;5024082;28;20028;-86
2023/05/01 04:05:53;;;;;;;4.60;1.08;;;13.70;59.80;;;;;;5004307;28;20045;-92
2023/05/01 04:08:19;;;;;;;1.08;0.77;;;13.70;59.90;;;;;;5029496;28;20150;-86
2023/05/01 04:10:47;;;;;;;4.82;1.23;;;13.70;59.90;;;;;;5030029;28;20029;-90
2023/05/01 04:13:16;;;;;;;2.05;0.70;;;13.60;59.90;;;;;;5033445;28;20032;-84
2023/05/01 04:15:47;;;;;;;2.65;0.80;;;13.60;59.90;;;;;;5032346;28;20044;-91
2023/05/01 04:18:13;;;;;;;2.23;1.13;;;13.60;60.00;;;;;;5040936;28;20028;-85
2023/05/01 04:20:39;;;;;;;1.35;0.90;;;13.60;60.00;;;;;;5033216;28;20380;-85
2023/05/01 04:23:05;;;;;;;1.15;0.82;;;13.60;60.00;;;;;;4997594;28;20974;-85
2023/05/01 04:25:30;;;;;;;1.98;1.00;;;13.60;60.10;;;;;;5009148;28;20033;-90
2023/05/01 04:27:56;;;;;;;0.85;0.82;;;13.60;60.10;;;;;;4998313;28;20029;-90
2023/05/01 04:30:22;;;;;;;1.10;0.80;;;13.60;60.10;;;;;;4998457;28;20034;-90
2023/05/01 04:32:47;;;;;;;0.82;0.68;;;13.60;60.10;;;;;;5004774;28;20034;-89
2023/05/01 04:35:13;;;;;;;2.08;1.17;;;13.60;60.20;;;;;;4997642;28;20117;-90
2023/05/01 04:37:39;;;;;;;0.98;0.55;;;13.70;60.30;;;;;;4999717;28;20029;-85
2023/05/01 04:40:05;;;;;;;1.50;1.00;;;13.70;60.30;;;;;;4996892;28;20489;-92
2023/05/01 04:42:32;;;;;;;1.33;0.50;;;13.70;60.40;;;;;;4995447;28;20128;-86
2023/05/01 04:45:01;;;;;;;2.20;0.73;;;13.70;60.20;;;;;;5029817;28;20503;-86
2023/05/01 04:47:27;;;;;;;1.15;0.98;;;13.70;60.30;;;;;;4995459;28;20107;-89
2023/05/01 04:49:53;;;;;;;1.17;0.60;;;13.70;60.50;;;;;;5001823;28;20072;-85
2023/05/01 04:52:19;;;;;;;0.73;0.70;;;13.80;60.60;;;;;;4996376;28;20049;-89
2023/05/01 04:54:44;;;;;;;1.00;0.80;;;13.80;60.70;;;;;;5013553;28;20028;-85
2023/05/01 04:57:10;;;;;;;2.83;1.05;;;13.80;60.50;;;;;;5028833;28;20041;-85
2023/05/01 04:59:36;;;;;;;1.55;0.82;;;13.80;60.50;;;;;;5041074;28;20065;-85
2023/05/01 05:02:04;;;;;;;0.80;0.80;;;13.80;60.60;;;;;;4998611;28;20037;-85
2023/05/01 05:04:29;;;;;;;1.10;0.80;;;13.80;60.50;;;;;;5017198;28;20040;-90
2023/05/01 05:06:55;;;;;;;4.57;0.93;;;13.80;60.40;;;;;;5004848;28;20037;-91
2023/05/01 05:09:21;;;;;;;3.70;0.73;;;13.80;60.20;;;;;;4994737;28;20025;-85
2023/05/01 05:11:46;;;;;;;4.10;0.77;;;13.80;60.20;;;;;;4992384;28;20030;-85
2023/05/01 05:14:12;;;;;;;2.88;1.02;;;13.90;60.10;;;;;;5010897;28;20031;-85
2023/05/01 05:16:38;;;;;;;2.67;0.93;;;13.90;60.00;;;;;;5002100;28;20037;-91
2023/05/01 05:19:03;;;;;;;0.60;0.60;;;13.90;60.00;;;;;;4996297;28;20484;-91
2023/05/01 05:21:30;;;;;;;0.60;0.50;;;13.90;60.00;;;;;;5016992;28;20556;-91
2023/05/01 05:23:56;;;;;;;1.63;0.60;;;13.90;60.00;;;;;;5031545;28;20079;-91
2023/05/01 05:26:22;;;;;;;1.30;0.75;;;14.00;60.10;;;;;;5020288;28;20538;-91
2023/05/01 05:28:49;;;;;;;0.70;0.70;;;14.00;60.00;;;;;;5065958;28;20040;-85
2023/05/01 05:31:16;;;;;;;1.27;0.95;;;14.10;59.90;;;;;;5032860;28;20484;-85
2023/05/01 05:33:42;;;;;;;1.65;0.95;;;14.10;59.70;;;;;;5045655;28;20155;-85
2023/05/01 05:36:07;;;;;;;1.35;1.00;;;14.20;59.80;;;;;;5048767;28;20120;-85
2023/05/01 05:38:33;;;;;;;1.50;0.70;;;14.20;59.70;;;;;;5031999;28;20049;-85
2023/05/01 05:41:00;;;;;;;1.27;0.80;;;14.20;59.60;;;;;;5055292;28;20037;-85
2023/05/01 05:43:26;;;;;;;0.80;0.77;;;14.20;59.50;;;;;;5044149;28;20067;-85
2023/05/01 05:45:56;;;;;;;1.00;0.90;;;14.20;59.60;;;;;;5031654;28;20063;-85
2023/05/01 05:48:22;;;;;;;1.10;0.70;;;14.20;59.60;;;;;;5027917;28;20541;-91
2023/05/01 05:50:49;;;;;;;1.60;0.82;;;14.20;59.50;;;;;;5031974;28;20029;-86
2023/05/01 05:53:15;;;;;;;1.20;0.80;;;14.20;59.50;;;;;;5016866;28;20466;-85
2023/05/01 05:55:42;;;;;;;1.70;0.80;;;14.30;59.60;;;;;;5020883;28;20117;-85
2023/05/01 05:58:08;;;;;;;0.90;0.70;;;14.20;59.50;;;;;;5015756;28;20034;-85
2023/05/01 06:00:33;;;;;;;2.97;1.02;;;14.30;59.60;;;;;;5029628;28;20036;-85
2023/05/01 06:02:59;;;;;;;0.52;0.52;;;14.30;59.40;;;;;;5016884;28;20029;-85
2023/05/01 06:05:25;;;;;;;1.13;0.75;;;14.30;59.30;;;;;;5036943;28;20029;-85
2023/05/01 06:07:51;;;;;;;0.95;0.50;;;14.30;59.30;;;;;;5019116;28;20051;-85
2023/05/01 06:10:17;;;;;;;1.65;0.93;;;14.40;59.30;;;;;;5034560;28;20013;-85
2023/05/01 06:12:42;;;;;;;0.40;0.40;;;14.40;59.40;;;;;;5034454;28;20030;-85
2023/05/01 06:15:08;;;;;;;1.00;0.50;;;14.50;59.40;;;;;;5018116;28;20083;-84
2023/05/01 06:17:34;;;;;;;0.75;0.60;;;14.50;59.20;;;;;;5017373;28;20033;-85
2023/05/01 06:20:01;;;;;;;0.65;0.65;;;14.50;59.20;;;;;;5016534;28;20033;-91
2023/05/01 06:22:26;;;;;;;1.20;0.85;;;14.60;59.10;;;;;;5036212;28;20047;-91
2023/05/01 06:24:52;;;;;;;1.77;0.93;;;14.60;59.00;;;;;;5019251;28;20037;-91
2023/05/01 06:27:18;;;;;;;1.15;0.80;;;14.60;58.90;;;;;;5036394;28;20112;-91
2023/05/01 06:29:43;;;;;;;1.52;0.98;;;14.60;58.80;;;;;;5034747;28;20033;-91
2023/05/01 06:32:09;;;;;;;1.60;0.70;;;14.70;58.80;;;;;;5017200;28;20115;-91
2023/05/01 06:34:35;;;;;;;4.57;1.00;;;14.60;58.70;;;;;;5032731;28;20406;-92
2023/05/01 06:37:01;;;;;;;2.72;0.70;;;14.60;58.80;;;;;;5017629;28;20032;-91
2023/05/01 06:39:26;;;;;;;1.90;0.93;;;14.70;59.00;;;;;;5017942;28;20025;-92
2023/05/01 06:41:52;;;;;;;0.70;0.52;;;14.60;59.10;;;;;;5019268;28;20345;-91
2023/05/01 06:44:18;;;;;;;1.55;0.60;;;14.60;59.10;;;;;;5033229;28;20429;-91
2023/05/01 06:46:43;;;;;;;2.25;1.15;;;14.60;59.20;;;;;;5054397;28;20017;-86
2023/05/01 06:49:09;;;;;;;1.17;0.80;;;14.70;59.20;;;;;;5034097;28;20029;-85
2023/05/01 06:51:35;;;;;;;2.55;1.00;;;14.70;59.20;;;;;;5032490;28;20048;-86
2023/05/01 06:54:01;;;;;;;1.00;0.70;;;14.70;59.20;;;;;;5020300;28;20086;-85
2023/05/01 06:56:26;;;;;;;2.92;1.10;;;14.70;59.20;;;;;;5030487;28;20022;-86
2023/05/01 06:58:52;;;;;;;1.45;0.80;;;14.70;59.30;;;;;;5033460;28;20037;-86
2023/05/01 07:01:18;;;;;;;0.85;0.68;;;14.70;59.30;;;;;;5044069;28;20559;-86
2023/05/01 07:03:43;;;;;;;3.38;0.77;;;14.80;59.30;;;;;;5027138;28;20429;-86
2023/05/01 07:06:09;;;;;;;1.13;0.77;;;14.80;59.20;;;;;;5007369;28;20040;-91
2023/05/01 07:08:35;;;;;;;1.50;0.90;;;14.80;59.30;;;;;;5033333;28;20037;-86
2023/05/01 07:11:01;;;;;;;2.13;1.00;;;14.90;59.30;;;;;;5016888;28;20403;-86
2023/05/01 07:13:27;;;;;;;1.92;0.68;;;14.90;59.30;;;;;;5031041;28;20124;-86
2023/05/01 07:15:53;;;;;;;2.22;0.98;;;14.90;59.30;;;;;;5015674;28;20717;-86
2023/05/01 07:18:18;;;;;;;1.77;0.80;;;14.90;59.30;;;;;;5046333;28;20086;-91
2023/05/01 07:20:44;;;;;;;1.95;1.08;;;15.00;59.30;;;;;;5023245;28;20020;-92
2023/05/01 07:23:10;;;;;;;1.45;0.88;;;15.00;59.30;;;;;;5019345;28;20044;-85
2023/05/01 07:25:45;;;;;;;7.22;1.00;;;15.00;59.40;;;;;;5051764;28;20103;-92
2023/05/01 07:28:10;;;;;;;1.40;0.88;;;15.10;60.00;;;;;;5054399;28;20032;-92
2023/05/01 07:30:36;;;;;;;1.30;0.55;;;15.10;59.30;;;;;;5031874;28;20488;-92
2023/05/01 07:33:04;;;;;;;2.47;1.30;;;15.20;59.20;;;;;;5037754;28;20357;-92
2023/05/01 07:35:31;;;;;;;1.30;0.60;;;15.20;59.00;;;;;;5035305;28;20324;-92
2023/05/01 07:37:57;;;;;;;1.35;0.85;;;15.30;59.00;;;;;;5031009;28;20028;-91
2023/05/01 07:40:22;;;;;;;1.48;0.90;;;15.30;59.10;;;;;;5061102;28;20026;-92
2023/05/01 07:42:48;;;;;;;3.30;0.77;;;15.30;59.10;;;;;;5034040;28;20228;-92
2023/05/01 07:45:14;;;;;;;4.28;0.85;;;15.40;59.00;;;;;;5043494;28;20346;-86
2023/05/01 07:47:39;;;;;;;1.45;0.80;;;15.50;58.80;;;;;;5026156;28;20036;-93
2023/05/01 07:50:10;;;;;;;2.15;1.02;;;15.50;58.80;;;;;;5021641;28;20029;-94
2023/05/01 07:52:36;;;;;;;1.17;0.77;;;15.60;58.60;;;;;;5065193;28;20031;-90
2023/05/01 07:55:03;;;;;;;4.32;0.98;;;15.80;58.50;;;;;;5031835;28;20025;-86
2023/05/01 07:57:29;;;;;;;1.15;0.63;;;15.90;58.30;;;;;;5051449;28;20039;-85
2023/05/01 07:59:56;;;;;;;0.80;0.80;;;16.00;58.00;;;;;;5013985;28;20515;-85
2023/05/01 08:02:22;;;;;;;1.17;0.90;;;16.20;57.90;;;;;;5029302;28;20520;-86
2023/05/01 08:04:47;;;;;;;1.85;0.80;;;16.30;57.60;;;;;;5027085;28;20508;-86
2023/05/01 08:07:14;;;;;;;0.68;0.60;;;16.40;57.50;;;;;;5043903;28;20059;-86
2023/05/01 08:09:39;;;;;;;13.55;1.15;;;16.50;57.40;;;;;;5045107;28;20136;-91
2023/05/01 08:12:05;;;;;;;1.00;0.77;;;16.60;57.20;;;;;;5050912;28;20480;-93
2023/05/01 08:14:31;;;;;;;1.98;1.08;;;16.70;57.90;;;;;;5027524;28;20423;-92
2023/05/01 08:16:57;;;;;;;1.90;0.80;;;16.80;57.10;;;;;;5015887;28;20106;-93
2023/05/01 08:19:23;;;;;;;0.95;0.82;;;16.80;57.10;;;;;;5032270;28;20032;-92
2023/05/01 08:21:49;;;;;;;0.77;0.73;;;16.90;57.10;;;;;;5042919;28;20170;-91
2023/05/01 08:24:15;;;;;;;2.92;1.05;;;16.90;57.00;;;;;;5034251;28;20124;-86
2023/05/01 08:26:40;;;;;;;0.80;0.65;;;17.00;57.00;;;;;;5052065;28;20033;-87
2023/05/01 08:29:06;;;;;;;1.88;0.90;;;17.00;56.80;;;;;;5033284;28;20025;-86
2023/05/01 08:31:34;;;;;;;2.05;0.98;;;17.10;56.50;;;;;;5013476;28;20064;-87
2023/05/01 08:34:06;;;;;;;1.75;1.20;;;17.20;56.50;;;;;;5059317;28;20067;-87
2023/05/01 08:36:32;;;;;;;1.88;0.88;;;17.20;56.50;;;;;;5010878;28;20178;-86
2023/05/01 08:38:58;;;;;;;1.60;1.25;;;17.20;56.40;;;;;;5030382;28;20528;-92
2023/05/01 08:41:26;;;;;;;0.98;0.82;;;17.30;56.50;;;;;;5029647;28;20040;-90
2023/05/01 08:43:52;;;;;;;1.30;0.82;;;17.40;56.50;;;;;;5061858;28;20029;-91
2023/05/01 08:46:45;;;;;;;3.33;0.98;;;17.60;56.40;;;;;;5063485;28;20476;-92
2023/05/01 08:49:15;;;;;;;1.48;0.80;;;17.70;56.20;;;;;;5029787;28;20044;-86
2023/05/01 08:51:48;;;;;;;0.85;0.60;;;17.80;56.20;;;;;;5030654;28;20396;-92
2023/05/01 08:54:15;;;;;;;2.33;1.30;;;17.90;56.20;;;;;;5049289;28;20052;-91
2023/05/01 08:56:43;;;;;;;2.03;1.38;;;18.00;56.10;;;;;;5028402;28;20029;-86
2023/05/01 08:59:10;;;;;;;1.00;0.90;;;18.10;55.80;;;;;;5062271;28;20029;-86
2023/05/01 09:01:37;;;;;;;1.50;1.13;;;18.20;55.80;;;;;;5028771;28;20404;-86
2023/05/01 09:04:05;;;;;;;0.77;0.77;;;18.30;55.70;;;;;;5027542;28;20518;-86
2023/05/01 09:06:31;;;;;;;0.95;0.88;;;18.30;55.00;;;;;;5027181;28;20036;-86
2023/05/01 09:08:58;;;;;;;0.77;0.65;;;18.40;55.00;;;;;;5027684;28;20120;-86
2023/05/01 09:11:25;;;;;;;2.67;0.60;;;18.50;55.20;;;;;;5021302;28;20117;-85
2023/05/01 09:13:52;;;;;;;2.28;0.95;;;18.70;55.00;;;;;;5029034;28;20025;-85
2023/05/01 09:16:18;;;;;;;1.83;0.90;;;18.80;54.20;;;;;;5044303;28;20116;-86
2023/05/01 09:18:45;;;;;;;1.90;1.05;;;19.00;54.10;;;;;;5047130;28;20404;-86
2023/05/01 09:21:11;;;;;;;1.63;0.93;;;19.00;53.80;;;;;;5027205;28;20041;-92
2023/05/01 09:23:37;;;;;;;1.38;0.68;;;19.10;53.90;;;;;;5027721;28;20059;-92
2023/05/01 09:26:09;;;;;;;1.45;1.10;;;19.30;53.60;;;;;;5013194;28;20048;-92
2023/05/01 09:28:40;;;;;;;1.92;1.10;;;19.40;53.00;;;;;;5018949;28;20064;-87
2023/05/01 09:31:31;;;;;;;1.02;0.63;;;19.40;53.10;;;;;;5034523;28;20029;-86
2023/05/01 09:33:58;;;;;;;1.02;0.88;;;19.50;52.90;;;;;;5030129;28;20034;-86
2023/05/01 09:36:29;;;;;;;0.75;0.57;;;19.60;52.90;;;;;;5050921;28;20399;-91
2023/05/01 09:38:56;;;;;;;2.50;1.00;;;19.80;53.00;;;;;;5022654;28;20040;-92
2023/05/01 09:41:22;;;;;;;1.10;1.00;;;20.10;52.60;;;;;;5064767;28;20041;-93
2023/05/01 09:43:56;;;;;;;2.75;1.00;;;20.20;52.00;;;;;;5018452;28;20041;-86
2023/05/01 09:46:23;;;;;;;1.60;1.00;;;20.30;51.70;;;;;;5032647;28;20120;-86
2023/05/01 09:48:57;;;;;;;1.45;1.05;;;20.40;51.70;;;;;;5055404;28;20072;-86
2023/05/01 09:51:26;;;;;;;2.22;1.15;;;20.70;51.70;;;;;;5034724;28;20037;-86
2023/05/01 09:53:53;;;;;;;1.35;1.10;;;20.90;51.10;;;;;;5050433;28;20447;-93
2023/05/01 09:56:22;;;;;;;1.42;0.65;;;21.10;50.50;;;;;;5033980;28;20353;-87
2023/05/01 09:58:53;;;;;;;0.90;0.70;;;21.30;50.60;;;;;;5036435;28;20431;-93
2023/05/01 10:01:40;;;;;;;1.75;1.20;;;21.40;50.10;;;;;;5048772;28;20037;-93
2023/05/01 10:04:08;;;;;;;3.35;1.50;;;21.40;50.40;;;;;;5032309;28;20029;-86
2023/05/01 10:06:35;;;;;;;1.05;0.80;;;21.50;50.10;;;;;;5033346;28;20557;-87
2023/05/01 10:09:02;;;;;;;0.68;0.60;;;21.60;50.10;;;;;;5035825;28;20123;-87
2023/05/01 10:11:28;;;;;;;1.40;0.90;;;21.60;50.10;;;;;;5018434;28;20056;-87
2023/05/01 10:14:08;;;;;;;2.53;0.68;;;21.70;50.10;;;;;;5034645;28;20025;-87
2023/05/01 10:16:35;;;;;;;2.05;1.00;;;21.80;50.10;;;;;;5029963;28;20155;-87
2023/05/01 10:19:02;;;;;;;1.42;0.60;;;21.80;49.90;;;;;;5034389;28;20033;-87
2023/05/01 10:21:29;;;;;;;1.38;1.05;;;22.00;49.80;;;;;;5018626;28;20044;-86
2023/05/01 10:23:55;;;;;;;1.75;0.70;;;22.20;50.20;;;;;;5050837;28;20040;-87
2023/05/01 10:26:22;;;;;;;0.90;0.90;;;22.30;49.40;;;;;;5031933;28;20032;-86
2023/05/01 10:28:48;;;;;;;1.10;0.65;;;22.50;49.30;;;;;;5032224;28;20040;-93
2023/05/01 10:31:15;;;;;;;0.77;0.77;;;22.50;49.30;;;;;;5026287;28;20512;-86
2023/05/01 10:33:46;;;;;;;1.13;0.80;;;22.60;49.20;;;;;;5030852;28;20056;-93
2023/05/01 10:36:36;;;;;;;2.20;0.70;;;22.70;49.10;;;;;;5036223;28;20033;-93
2023/05/01 10:39:03;;;;;;;1.00;0.47;;;22.80;49.00;;;;;;5024328;28;20112;-93
2023/05/01 10:41:56;;;;;;;2.30;0.60;;;22.90;48.90;;;;;;5035727;28;20480;-94
2023/05/01 10:44:23;;;;;;;3.72;0.85;;;23.10;48.90;;;;;;5029935;28;20431;-86
2023/05/01 10:46:49;;;;;;;0.80;0.75;;;23.20;48.50;;;;;;5018422;28;20033;-86
2023/05/01 10:49:16;;;;;;;0.77;0.77;;;23.40;48.20;;;;;;5033876;28;20037;-92
2023/05/01 10:51:57;;;;;;;1.95;0.93;;;23.50;48.00;;;;;;5031632;28;20032;-91
2023/05/01 10:54:25;;;;;;;0.77;0.70;;;23.70;47.60;;;;;;5049069;28;20071;-92
2023/05/01 10:56:52;;;;;;;0.75;0.73;;;23.80;47.50;;;;;;5015739;28;20026;-90
2023/05/01 10:59:18;;;;;;;1.00;0.82;;;23.90;47.30;;;;;;5049675;28;20028;-92
2023/05/01 11:01:51;;;;;;;1.55;1.00;;;23.90;47.10;;;;;;5017750;28;20087;-92
2023/05/01 11:04:23;;;;;;;0.77;0.77;;;23.90;46.60;;;;;;5032413;28;20044;-92
2023/05/01 11:07:07;;;;;;;1.42;0.93;;;23.90;47.10;;;;;;5045800;28;20099;-92
2023/05/01 11:09:43;;;;;;;0.68;0.55;;;24.00;46.70;;;;;;5068459;28;20519;-92
2023/05/01 11:12:11;;;;;;;1.40;0.82;;;24.00;46.60;;;;;;5032165;28;20021;-92
2023/05/01 11:14:56;;;;;;;1.17;0.50;;;24.10;46.50;;;;;;5053714;28;20036;-92
2023/05/01 11:17:42;;;;;;;1.65;0.77;;;24.20;46.40;;;;;;5047804;28;20103;-93
2023/05/01 11:20:23;;;;;;;0.65;0.60;;;24.30;46.30;;;;;;5050866;28;20044;-87
2023/05/01 11:22:52;;;;;;;0.95;0.70;;;24.40;44.70;;;;;;5049860;28;20075;-88
2023/05/01 11:25:20;;;;;;;1.17;0.50;;;24.40;43.80;;;;;;5028818;28;20059;-88
2023/05/01 11:27:51;;;;;;;0.45;0.30;;;24.40;43.20;;;;;;5027801;28;20487;-86
2023/05/01 11:30:17;;;;;;;0.30;0.30;;;24.40;43.20;;;;;;5028551;28;20506;-87
2023/05/01 11:32:45;;;;;;;0.90;0.55;;;24.40;42.80;;;;;;5029695;28;20384;-86
2023/05/01 11:35:29;;;;;;;0.30;0.30;;;24.40;43.00;;;;;;5050580;28;20457;-92
2023/05/01 11:37:55;;;;;;;0.30;0.30;;;24.30;43.20;;;;;;5034363;28;20463;-92
2023/05/01 11:40:24;;;;;;;0.40;0.40;;;24.10;43.20;;;;;;5034584;28;20071;-86
2023/05/01 11:42:59;;;;;;;0.60;0.60;;;23.90;43.30;;;;;;5042922;28;20033;-86
2023/05/01 11:45:25;;;;;;;1.23;0.60;;;23.80;43.40;;;;;;5034423;28;20476;-86
2023/05/01 11:47:50;;;;;;;1.20;0.50;;;23.50;43.70;;;;;;5014535;28;20087;-93
2023/05/01 11:50:16;;;;;;;0.50;0.50;;;23.20;43.80;;;;;;5022442;28;20005;-92
2023/05/01 11:52:47;;;;;;;0.55;0.40;;;23.10;44.10;;;;;;5039337;28;20500;-87
2023/05/01 11:55:13;;;;;;;0.53;0.47;;;23.00;44.30;;;;;;5030947;28;20017;-91
2023/05/01 11:57:49;;;;;;;0.68;0.45;;;22.90;44.60;;;;;;5019266;28;20041;-91
2023/05/01 12:00:15;;;;;;;0.73;0.40;;;22.90;44.60;;;;;;5068132;28;20463;-92
2023/05/01 12:02:58;;;;;;;0.45;0.45;;;22.80;44.70;;;;;;5025261;28;20395;-86
2023/05/01 12:05:25;;;;;;;0.57;0.35;;;22.80;44.90;;;;;;5028356;28;20021;-92
2023/05/01 12:07:51;;;;;;;0.63;0.35;;;22.80;45.00;;;;;;5031431;28;20029;-87
2023/05/01 12:10:18;;;;;;;0.40;0.40;;;22.80;45.00;;;;;;5026908;28;20032;-86
2023/05/01 12:12:43;;;;;;;0.65;0.40;;;22.80;44.90;;;;;;5030638;28;20040;-86
2023/05/01 12:15:10;;;;;;;0.28;0.28;;;22.80;45.00;;;;;;5013611;28;20029;-93
2023/05/01 12:17:36;;;;;;;0.75;0.52;;;22.70;45.10;;;;;;5019698;28;20123;-92
2023/05/01 12:20:40;;;;;;;0.50;0.35;;;22.60;45.00;;;;;;5019789;28;20482;-92
2023/05/01 12:23:09;;;;;;;0.50;0.47;;;22.50;45.20;;;;;;5023529;28;20045;-93
2023/05/01 12:25:36;;;;;;;0.55;0.40;;;22.40;45.30;;;;;;5033428;28;20070;-87
2023/05/01 12:28:06;;;;;;;1.38;0.45;;;22.30;45.50;;;;;;5036338;28;20025;-93
2023/05/01 12:30:32;;;;;;;0.55;0.40;;;22.20;45.60;;;;;;5028095;28;20123;-93
2023/05/01 12:32:58;;;;;;;1.15;0.55;;;22.00;45.50;;;;;;5011800;28;20120;-94
2023/05/01 12:35:30;;;;;;;0.57;0.52;;;22.00;45.50;;;;;;5016168;28;20056;-94
2023/05/01 12:37:57;;;;;;;0.77;0.45;;;21.90;45.60;;;;;;5015779;28;20029;-92
2023/05/01 12:40:23;;;;;;;0.65;0.47;;;21.90;45.50;;;;;;5025940;28;20040;-87
2023/05/01 12:42:56;;;;;;;0.95;0.32;;;21.90;45.40;;;;;;5031332;28;20033;-93
2023/05/01 12:45:23;;;;;;;0.47;0.47;;;21.90;45.50;;;;;;5050965;28;20459;-93
2023/05/01 12:47:49;;;;;;;0.45;0.43;;;21.80;45.00;;;;;;5053152;28;20044;-87
2023/05/01 12:50:15;;;;;;;1.17;0.85;;;21.90;44.60;;;;;;5026547;28;20034;-93
2023/05/01 12:52:41;;;;;;;0.47;0.40;;;21.80;43.10;;;;;;5013637;28;20116;-92
2023/05/01 12:55:08;;;;;;;0.47;0.47;;;21.70;43.40;;;;;;5026584;28;20578;-87